Time;durP1;ratioP1;P1;durP2;ratioP2;P2;SDS_P1;SDS_P2;PMS_P1;PMS_P2;Temp;Humidity;BMP_temperature;BMP_pressure;BME280_temperature;BME280_humidity;BME280_pressure;Samples;Min_cycle;Max_cycle;Signal;HPM_P1;HPM_P2
2023/12/13 00:01:23;;;;;;;1.13;0.80;;;21.50;53.20;;;;;;4998400;28;20434;-68
2023/12/13 00:03:50;;;;;;;1.83;1.00;;;21.50;53.20;;;;;;4983231;28;20027;-68
2023/12/13 00:06:15;;;;;;;2.13;0.90;;;21.40;53.30;;;;;;4982306;28;20031;-68
2023/12/13 00:08:41;;;;;;;0.90;0.80;;;21.40;53.30;;;;;;4981851;28;20505;-68
2023/12/13 00:11:07;;;;;;;1.83;0.80;;;21.40;53.30;;;;;;4980597;28;20026;-68
2023/12/13 00:13:33;;;;;;;1.85;0.80;;;21.40;53.30;;;;;;4995945;28;20093;-68
2023/12/13 00:16:00;;;;;;;1.10;0.77;;;21.40;53.30;;;;;;4979515;28;20026;-68
2023/12/13 00:18:25;;;;;;;1.85;0.90;;;21.40;53.40;;;;;;4982131;28;20059;-68
2023/12/13 00:20:51;;;;;;;1.73;0.90;;;21.40;53.90;;;;;;4982358;28;20542;-68
2023/12/13 00:23:17;;;;;;;1.25;0.90;;;21.30;53.40;;;;;;4979358;28;20023;-68
2023/12/13 00:25:43;;;;;;;1.23;0.90;;;21.30;53.40;;;;;;4977922;28;20509;-68
2023/12/13 00:28:09;;;;;;;1.42;0.70;;;21.30;53.40;;;;;;4980419;28;20109;-67
2023/12/13 00:30:34;;;;;;;1.63;0.85;;;21.30;53.50;;;;;;4981273;28;20031;-67
2023/12/13 00:33:00;;;;;;;1.08;0.80;;;21.30;53.50;;;;;;4978344;28;20037;-67
2023/12/13 00:35:25;;;;;;;0.93;0.80;;;21.30;53.50;;;;;;4981898;28;20022;-67
2023/12/13 00:37:51;;;;;;;1.55;0.88;;;21.30;53.50;;;;;;4982168;28;20015;-68
2023/12/13 00:40:18;;;;;;;1.40;0.90;;;21.20;53.50;;;;;;4979580;28;20037;-66
2023/12/13 00:42:44;;;;;;;1.30;0.80;;;21.30;53.50;;;;;;4980161;28;20109;-67
2023/12/13 00:45:10;;;;;;;1.30;0.70;;;21.20;53.50;;;;;;4980003;28;20621;-66
2023/12/13 00:47:35;;;;;;;1.10;0.80;;;21.20;53.50;;;;;;4982301;28;20023;-68
2023/12/13 00:50:01;;;;;;;1.08;0.73;;;21.20;53.50;;;;;;4980857;28;20487;-66
2023/12/13 00:52:27;;;;;;;1.63;1.00;;;21.20;53.60;;;;;;4981633;28;20035;-66
2023/12/13 00:54:52;;;;;;;1.52;0.88;;;21.20;53.60;;;;;;4997283;28;20112;-66
2023/12/13 00:57:18;;;;;;;0.93;0.70;;;21.20;53.60;;;;;;4980545;28;20049;-67
2023/12/13 00:59:43;;;;;;;1.10;0.70;;;21.20;53.70;;;;;;4994942;28;20034;-66
2023/12/13 01:02:09;;;;;;;1.23;0.80;;;21.10;53.60;;;;;;4976996;28;20031;-67
2023/12/13 01:04:36;;;;;;;0.70;0.70;;;21.10;53.70;;;;;;4981555;28;20050;-66
2023/12/13 01:07:02;;;;;;;1.20;0.77;;;21.10;53.70;;;;;;4979897;28;20514;-66
2023/12/13 01:09:28;;;;;;;1.40;0.80;;;21.20;53.80;;;;;;4979646;28;20181;-66
2023/12/13 01:11:53;;;;;;;1.02;0.80;;;21.10;53.70;;;;;;4979669;28;20031;-66
2023/12/13 01:14:19;;;;;;;1.77;0.90;;;21.10;53.70;;;;;;4979667;28;20499;-66
2023/12/13 01:16:44;;;;;;;1.23;0.70;;;21.10;53.70;;;;;;4979318;28;20030;-67
2023/12/13 01:19:10;;;;;;;1.05;0.73;;;21.10;53.70;;;;;;4980695;28;20165;-66
2023/12/13 01:21:36;;;;;;;1.40;0.80;;;21.10;53.70;;;;;;4978766;28;20509;-68
2023/12/13 01:24:02;;;;;;;1.10;0.70;;;21.10;53.80;;;;;;4980132;28;20524;-66
2023/12/13 01:26:28;;;;;;;0.80;0.60;;;21.10;53.80;;;;;;4979052;28;20901;-66
2023/12/13 01:28:54;;;;;;;0.85;0.70;;;21.00;53.80;;;;;;4978147;28;20097;-67
2023/12/13 01:31:19;;;;;;;0.90;0.70;;;21.00;53.80;;;;;;4981189;28;20038;-67
2023/12/13 01:33:45;;;;;;;1.30;0.77;;;21.00;53.80;;;;;;4980329;28;20146;-68
2023/12/13 01:36:11;;;;;;;1.13;0.70;;;21.00;53.80;;;;;;4981287;28;20038;-68
2023/12/13 01:38:36;;;;;;;1.20;0.75;;;21.00;53.80;;;;;;4979614;28;20479;-68
2023/12/13 01:41:03;;;;;;;1.45;0.60;;;21.00;53.90;;;;;;4994370;28;20130;-68
2023/12/13 01:43:29;;;;;;;1.13;0.75;;;21.00;53.90;;;;;;4993988;28;20042;-67
2023/12/13 01:45:57;;;;;;;1.40;0.75;;;21.00;53.90;;;;;;4980335;28;20026;-67
2023/12/13 01:48:27;;;;;;;1.13;0.70;;;21.00;53.90;;;;;;4978467;28;20042;-67
2023/12/13 01:50:53;;;;;;;0.80;0.60;;;21.00;53.90;;;;;;4977715;28;20033;-66
2023/12/13 01:53:20;;;;;;;1.05;0.70;;;21.00;53.90;;;;;;4979995;28;20038;-66
2023/12/13 01:55:46;;;;;;;0.98;0.73;;;20.90;53.80;;;;;;4977927;28;20074;-67
2023/12/13 01:58:13;;;;;;;0.90;0.80;;;20.90;53.90;;;;;;4943045;28;1069688;-68
2023/12/13 02:00:42;;;;;;;1.20;0.80;;;20.90;53.90;;;;;;4984529;28;20034;-67
2023/12/13 02:03:09;;;;;;;0.95;0.70;;;20.90;53.90;;;;;;4998237;28;20406;-67
2023/12/13 02:05:36;;;;;;;1.42;0.80;;;20.90;53.90;;;;;;4982552;28;20593;-66
2023/12/13 02:08:03;;;;;;;0.80;0.70;;;20.90;53.90;;;;;;4984259;28;20402;-66
2023/12/13 02:10:28;;;;;;;1.33;0.90;;;20.90;54.00;;;;;;4981860;28;20232;-67
2023/12/13 02:12:54;;;;;;;0.98;0.70;;;20.90;54.00;;;;;;4983948;28;20547;-67
2023/12/13 02:15:21;;;;;;;1.13;0.70;;;20.90;54.00;;;;;;4983847;28;20026;-67
2023/12/13 02:17:53;;;;;;;1.00;0.77;;;20.90;54.00;;;;;;4982998;28;20018;-66
2023/12/13 02:20:19;;;;;;;1.17;0.55;;;20.90;54.00;;;;;;4984877;28;20038;-67
2023/12/13 02:22:45;;;;;;;0.88;0.75;;;20.90;54.00;;;;;;4983636;28;20038;-68
2023/12/13 02:25:22;;;;;;;1.33;0.73;;;20.90;54.00;;;;;;4982648;28;20027;-67
2023/12/13 02:27:48;;;;;;;1.00;0.70;;;20.80;54.00;;;;;;4983489;28;20037;-67
2023/12/13 02:30:14;;;;;;;1.00;0.60;;;20.80;54.00;;;;;;4998310;28;20486;-68
2023/12/13 02:32:40;;;;;;;1.00;0.70;;;20.80;54.50;;;;;;4982529;28;20064;-67
2023/12/13 02:35:06;;;;;;;1.50;0.70;;;20.80;54.00;;;;;;4985183;28;20609;-68
2023/12/13 02:37:31;;;;;;;1.08;0.70;;;20.80;54.00;;;;;;4981223;28;20196;-67
2023/12/13 02:39:58;;;;;;;1.10;0.70;;;20.80;54.00;;;;;;4985076;28;20117;-67
2023/12/13 02:42:27;;;;;;;1.10;0.70;;;20.80;54.00;;;;;;4998615;28;20030;-67
2023/12/13 02:44:52;;;;;;;1.08;0.70;;;20.80;54.00;;;;;;4983197;28;20113;-67
2023/12/13 02:47:18;;;;;;;1.13;0.80;;;20.80;54.50;;;;;;4981116;28;20106;-66
2023/12/13 02:49:44;;;;;;;1.40;0.73;;;20.80;54.00;;;;;;4982454;28;20034;-67
2023/12/13 02:52:10;;;;;;;0.77;0.60;;;20.80;54.00;;;;;;4983649;28;20108;-68
2023/12/13 02:54:35;;;;;;;1.23;0.75;;;20.80;54.00;;;;;;4983476;28;20058;-68
2023/12/13 02:57:01;;;;;;;0.90;0.60;;;20.70;54.00;;;;;;4981066;28;20577;-68
2023/12/13 02:59:26;;;;;;;0.68;0.50;;;20.70;54.10;;;;;;4983637;28;20053;-68
2023/12/13 03:01:52;;;;;;;1.13;0.68;;;20.70;54.00;;;;;;4981814;28;20038;-68
2023/12/13 03:04:17;;;;;;;0.98;0.63;;;20.70;54.10;;;;;;4981620;28;20510;-68
2023/12/13 03:06:43;;;;;;;0.75;0.70;;;20.70;54.10;;;;;;4983438;28;20049;-68
2023/12/13 03:09:09;;;;;;;1.02;0.85;;;20.70;54.10;;;;;;4981937;28;20063;-68
2023/12/13 03:11:34;;;;;;;0.82;0.60;;;20.70;54.10;;;;;;4996815;28;20051;-68
2023/12/13 03:14:00;;;;;;;0.90;0.70;;;20.70;54.10;;;;;;4981956;28;20034;-68
2023/12/13 03:16:28;;;;;;;0.90;0.65;;;20.70;54.20;;;;;;4981203;28;20042;-68
2023/12/13 03:18:53;;;;;;;0.80;0.60;;;20.70;54.10;;;;;;4983625;28;20026;-68
2023/12/13 03:21:19;;;;;;;0.90;0.60;;;20.70;54.10;;;;;;4982685;28;20027;-68
2023/12/13 03:23:44;;;;;;;1.38;0.70;;;20.70;54.10;;;;;;4982270;28;20121;-68
2023/12/13 03:26:10;;;;;;;1.05;0.55;;;20.60;54.10;;;;;;4997963;28;20486;-68
2023/12/13 03:28:35;;;;;;;0.82;0.52;;;20.70;54.20;;;;;;4982307;28;20497;-68
2023/12/13 03:31:08;;;;;;;0.88;0.60;;;20.60;54.20;;;;;;4981584;28;20031;-68
2023/12/13 03:33:33;;;;;;;0.60;0.50;;;20.60;54.10;;;;;;4982210;28;20402;-69
2023/12/13 03:35:59;;;;;;;1.00;0.70;;;20.60;54.20;;;;;;4982861;28;20027;-68
2023/12/13 03:38:24;;;;;;;1.00;0.70;;;20.60;54.20;;;;;;4983190;28;20042;-68
2023/12/13 03:40:50;;;;;;;1.02;0.70;;;20.60;54.20;;;;;;4981871;28;20195;-68
2023/12/13 03:43:15;;;;;;;0.60;0.60;;;20.60;54.20;;;;;;4979380;28;20486;-68
2023/12/13 03:45:41;;;;;;;0.95;0.60;;;20.60;54.10;;;;;;4982725;28;20368;-68
2023/12/13 03:48:07;;;;;;;0.65;0.50;;;20.60;54.20;;;;;;4999034;28;20034;-68
2023/12/13 03:50:32;;;;;;;0.90;0.70;;;20.60;54.20;;;;;;4981987;28;20038;-68
2023/12/13 03:52:58;;;;;;;0.80;0.70;;;20.60;54.20;;;;;;4998384;28;20165;-68
2023/12/13 03:55:23;;;;;;;0.70;0.60;;;20.60;54.20;;;;;;4982229;28;20490;-68
2023/12/13 03:57:49;;;;;;;0.60;0.60;;;20.60;54.20;;;;;;4984601;28;20046;-68
2023/12/13 04:00:15;;;;;;;0.52;0.52;;;20.60;54.30;;;;;;4980451;28;20451;-68
2023/12/13 04:02:40;;;;;;;0.60;0.60;;;20.60;54.20;;;;;;4980647;28;20030;-68
2023/12/13 04:05:07;;;;;;;1.13;0.60;;;20.60;54.20;;;;;;4983560;28;20015;-68
2023/12/13 04:07:33;;;;;;;0.90;0.70;;;20.50;54.20;;;;;;4982015;28;20029;-67
2023/12/13 04:09:58;;;;;;;1.05;0.70;;;20.50;54.20;;;;;;4983426;28;20039;-68
2023/12/13 04:12:24;;;;;;;1.02;0.60;;;20.50;54.20;;;;;;4982355;28;20039;-67
2023/12/13 04:14:49;;;;;;;0.70;0.60;;;20.50;54.20;;;;;;4994533;28;20027;-67
2023/12/13 04:17:15;;;;;;;0.70;0.68;;;20.50;54.20;;;;;;4980934;28;20034;-67
2023/12/13 04:19:41;;;;;;;0.80;0.70;;;20.50;54.20;;;;;;4983053;28;20023;-67
2023/12/13 04:22:06;;;;;;;1.05;0.60;;;20.50;54.20;;;;;;4980276;28;20109;-68
2023/12/13 04:24:32;;;;;;;0.60;0.60;;;20.50;54.20;;;;;;4979857;28;20046;-67
2023/12/13 04:26:57;;;;;;;0.85;0.65;;;20.50;54.20;;;;;;4981005;28;20069;-67
2023/12/13 04:29:23;;;;;;;0.60;0.60;;;20.60;54.20;;;;;;4981816;28;20034;-68
2023/12/13 04:31:50;;;;;;;0.80;0.60;;;20.50;54.20;;;;;;4979999;28;20487;-67
2023/12/13 04:34:15;;;;;;;0.60;0.50;;;20.50;54.20;;;;;;4980897;28;20458;-68
2023/12/13 04:36:41;;;;;;;0.70;0.50;;;20.50;54.20;;;;;;4983486;28;20030;-68
2023/12/13 04:39:07;;;;;;;0.80;0.68;;;20.50;54.30;;;;;;4980544;28;20451;-68
2023/12/13 04:41:32;;;;;;;0.60;0.52;;;20.50;54.30;;;;;;4981382;28;20494;-68
2023/12/13 04:43:58;;;;;;;0.57;0.57;;;20.50;54.30;;;;;;4980971;28;20026;-67
2023/12/13 04:46:24;;;;;;;0.68;0.60;;;20.40;54.20;;;;;;4981862;28;20100;-67
2023/12/13 04:48:49;;;;;;;0.50;0.50;;;20.50;54.30;;;;;;4983803;28;20109;-67
2023/12/13 04:51:15;;;;;;;0.50;0.50;;;20.50;54.30;;;;;;4981021;28;20553;-67
2023/12/13 04:53:41;;;;;;;0.50;0.50;;;20.50;54.30;;;;;;4981077;28;20038;-67
2023/12/13 04:56:07;;;;;;;0.65;0.50;;;20.40;54.30;;;;;;4995535;28;20479;-67
2023/12/13 04:58:33;;;;;;;0.70;0.50;;;20.40;54.20;;;;;;4982638;28;20037;-67
2023/12/13 05:00:58;;;;;;;0.60;0.60;;;20.40;54.30;;;;;;4978081;28;20035;-67
2023/12/13 05:03:26;;;;;;;0.40;0.40;;;20.40;54.30;;;;;;4980547;28;20070;-67
2023/12/13 05:05:52;;;;;;;0.70;0.52;;;20.40;54.30;;;;;;4980658;28;20042;-66
2023/12/13 05:08:17;;;;;;;0.80;0.70;;;20.40;54.40;;;;;;4980981;28;20030;-67
2023/12/13 05:10:43;;;;;;;1.00;0.60;;;20.40;54.50;;;;;;4979130;28;20486;-67
2023/12/13 05:13:09;;;;;;;0.95;0.60;;;20.40;54.60;;;;;;4980789;28;20434;-67
2023/12/13 05:15:35;;;;;;;0.75;0.52;;;20.30;54.60;;;;;;4979334;28;20022;-67
2023/12/13 05:18:01;;;;;;;1.10;0.57;;;20.30;54.60;;;;;;4979250;28;20030;-67
2023/12/13 05:20:27;;;;;;;0.70;0.60;;;20.40;54.70;;;;;;4977675;28;20446;-66
2023/12/13 05:22:53;;;;;;;0.60;0.60;;;20.30;54.80;;;;;;4994680;28;20030;-66
2023/12/13 05:25:18;;;;;;;0.80;0.60;;;20.30;54.80;;;;;;4981380;28;20034;-68
2023/12/13 05:27:44;;;;;;;0.95;0.60;;;20.30;54.80;;;;;;4996656;28;20109;-68
2023/12/13 05:30:10;;;;;;;0.70;0.65;;;20.30;54.80;;;;;;4980940;28;20022;-69
2023/12/13 05:32:36;;;;;;;0.60;0.60;;;20.30;54.80;;;;;;4979435;28;20486;-68
2023/12/13 05:35:02;;;;;;;1.02;0.70;;;20.30;54.80;;;;;;4979009;28;20113;-65
2023/12/13 05:37:29;;;;;;;0.80;0.65;;;20.30;54.70;;;;;;4980868;28;20033;-67
2023/12/13 05:39:54;;;;;;;1.10;0.60;;;20.30;54.80;;;;;;4993761;28;20039;-67
2023/12/13 05:42:20;;;;;;;0.70;0.60;;;20.40;54.70;;;;;;4980460;28;20081;-67
2023/12/13 05:44:48;;;;;;;0.75;0.60;;;20.30;54.80;;;;;;4977785;28;20482;-66
2023/12/13 05:47:14;;;;;;;0.60;0.60;;;20.30;54.70;;;;;;4980324;28;20027;-66
2023/12/13 05:49:40;;;;;;;0.70;0.60;;;20.30;54.70;;;;;;4979824;28;20046;-67
2023/12/13 05:52:06;;;;;;;0.82;0.60;;;20.30;54.70;;;;;;4978506;28;20130;-64
2023/12/13 05:54:33;;;;;;;0.60;0.60;;;20.30;54.70;;;;;;4991995;28;20081;-67
2023/12/13 05:56:59;;;;;;;1.23;0.65;;;20.30;54.70;;;;;;4981540;28;20042;-67
2023/12/13 05:59:24;;;;;;;1.10;0.70;;;20.30;54.70;;;;;;4980121;28;20566;-66
2023/12/13 06:01:50;;;;;;;0.90;0.50;;;20.30;54.60;;;;;;4978690;28;20039;-66
2023/12/13 06:04:15;;;;;;;0.88;0.55;;;20.30;54.70;;;;;;4980006;28;20038;-67
2023/12/13 06:06:45;;;;;;;1.30;0.70;;;20.30;54.80;;;;;;4980653;28;20053;-67
2023/12/13 06:09:11;;;;;;;1.65;0.60;;;20.30;55.40;;;;;;4978111;28;20034;-66
2023/12/13 06:11:36;;;;;;;0.73;0.60;;;20.30;55.00;;;;;;4982763;28;20031;-67
2023/12/13 06:14:02;;;;;;;1.65;0.70;;;20.30;55.10;;;;;;4980946;28;20038;-65
2023/12/13 06:16:28;;;;;;;1.50;0.60;;;20.30;55.10;;;;;;4979403;28;20089;-67
2023/12/13 06:18:53;;;;;;;1.05;0.60;;;20.30;55.20;;;;;;4981808;28;20397;-67
2023/12/13 06:21:19;;;;;;;0.88;0.60;;;20.20;55.20;;;;;;4978556;28;20037;-66
2023/12/13 06:23:45;;;;;;;0.82;0.70;;;20.30;55.20;;;;;;4980805;28;20057;-65
2023/12/13 06:26:10;;;;;;;0.93;0.60;;;20.30;55.30;;;;;;4980203;28;20031;-69
2023/12/13 06:28:36;;;;;;;1.10;0.52;;;20.20;55.30;;;;;;4980720;28;20105;-69
2023/12/13 06:31:02;;;;;;;0.63;0.57;;;20.30;55.40;;;;;;4979379;28;20030;-69
2023/12/13 06:33:28;;;;;;;0.73;0.50;;;20.30;55.40;;;;;;4980266;28;20478;-69
2023/12/13 06:35:53;;;;;;;0.95;0.60;;;20.20;55.30;;;;;;4978551;28;20113;-69
2023/12/13 06:38:19;;;;;;;1.00;0.57;;;20.20;55.30;;;;;;4978894;28;20039;-68
2023/12/13 06:40:44;;;;;;;2.38;0.60;;;20.20;55.40;;;;;;4979605;28;20042;-69
2023/12/13 06:43:10;;;;;;;0.60;0.50;;;20.20;55.50;;;;;;4979596;28;20027;-69
2023/12/13 06:45:36;;;;;;;0.60;0.60;;;20.30;55.50;;;;;;4981680;28;20038;-66
2023/12/13 06:48:01;;;;;;;2.45;0.57;;;20.20;55.40;;;;;;4988681;28;20102;-65
2023/12/13 06:50:28;;;;;;;2.17;0.60;;;20.30;55.80;;;;;;4987704;28;20052;-66
2023/12/13 06:52:54;;;;;;;1.00;0.80;;;20.40;55.70;;;;;;4985745;28;20474;-67
2023/12/13 06:55:21;;;;;;;1.52;0.80;;;20.50;55.50;;;;;;4984608;28;20027;-66
2023/12/13 06:57:47;;;;;;;1.73;0.80;;;20.60;55.40;;;;;;4984744;28;20045;-67
2023/12/13 07:00:13;;;;;;;1.13;0.90;;;20.70;55.30;;;;;;4983137;28;20050;-66
2023/12/13 07:02:39;;;;;;;1.38;0.70;;;20.80;55.10;;;;;;4981388;28;20048;-67
2023/12/13 07:05:07;;;;;;;1.52;0.73;;;20.90;54.90;;;;;;4981305;28;20751;-64
2023/12/13 07:07:33;;;;;;;1.48;0.80;;;21.00;54.80;;;;;;4998468;28;20395;-68
2023/12/13 07:09:59;;;;;;;1.98;0.75;;;21.10;54.50;;;;;;4982635;28;20026;-68
2023/12/13 07:12:28;;;;;;;1.45;0.80;;;21.20;54.40;;;;;;4982531;28;20035;-68
2023/12/13 07:14:57;;;;;;;1.00;0.80;;;21.30;54.30;;;;;;4982094;28;20092;-67
2023/12/13 07:17:23;;;;;;;1.92;0.90;;;21.40;54.10;;;;;;4984173;28;20031;-67
2023/12/13 07:19:49;;;;;;;0.82;0.70;;;21.50;53.90;;;;;;4996647;28;20037;-67
2023/12/13 07:22:15;;;;;;;1.90;0.70;;;21.50;53.70;;;;;;4984310;28;20022;-66
2023/12/13 07:24:41;;;;;;;3.17;0.80;;;21.60;54.00;;;;;;4982221;28;20046;-67
2023/12/13 07:27:07;;;;;;;2.08;0.70;;;21.70;53.40;;;;;;4982359;28;20031;-68
2023/12/13 07:29:33;;;;;;;2.55;1.00;;;21.80;53.20;;;;;;4983401;28;20058;-68
2023/12/13 07:31:59;;;;;;;1.23;0.80;;;21.90;53.00;;;;;;4978772;28;20030;-67
2023/12/13 07:34:25;;;;;;;0.90;0.60;;;22.00;52.70;;;;;;4981342;28;20113;-66
2023/12/13 07:36:53;;;;;;;2.33;0.88;;;22.10;52.60;;;;;;4982242;28;20114;-70
2023/12/13 07:39:19;;;;;;;0.95;0.70;;;22.10;52.40;;;;;;4982385;28;20045;-70
2023/12/13 07:41:45;;;;;;;1.23;0.90;;;22.20;52.30;;;;;;4982324;28;20026;-70
2023/12/13 07:44:10;;;;;;;1.73;0.90;;;22.20;52.20;;;;;;4982428;28;20023;-67
2023/12/13 07:46:38;;;;;;;1.45;0.90;;;22.20;52.00;;;;;;4980049;28;20035;-67
2023/12/13 07:49:04;;;;;;;1.80;0.90;;;22.20;51.90;;;;;;4998363;28;20122;-69
2023/12/13 07:51:31;;;;;;;1.50;0.90;;;22.20;51.90;;;;;;4995702;28;20042;-67
2023/12/13 07:53:58;;;;;;;0.90;0.70;;;22.20;52.00;;;;;;4981931;28;20030;-67
2023/12/13 07:56:25;;;;;;;1.60;0.70;;;22.20;52.00;;;;;;4979319;28;20034;-67
2023/12/13 07:58:50;;;;;;;1.05;0.80;;;22.20;51.90;;;;;;4982068;28;20637;-66
2023/12/13 08:01:16;;;;;;;1.27;0.75;;;22.20;51.90;;;;;;4981690;28;20111;-68
2023/12/13 08:03:43;;;;;;;1.17;0.70;;;22.20;52.00;;;;;;4981865;28;20026;-66
2023/12/13 08:06:12;;;;;;;2.75;0.90;;;22.20;52.10;;;;;;4981367;28;20085;-67
2023/12/13 08:08:39;;;;;;;1.30;0.80;;;22.20;52.10;;;;;;4983136;28;20014;-66
2023/12/13 08:11:05;;;;;;;1.42;0.77;;;22.20;52.10;;;;;;4980774;28;20038;-66
2023/12/13 08:13:32;;;;;;;1.10;0.80;;;22.20;52.10;;;;;;4982369;28;20033;-66
2023/12/13 08:15:58;;;;;;;1.55;0.80;;;22.20;52.10;;;;;;4981803;28;20491;-66
2023/12/13 08:18:24;;;;;;;0.88;0.70;;;22.20;52.10;;;;;;4980393;28;20034;-66
2023/12/13 08:20:49;;;;;;;2.45;0.90;;;22.20;52.10;;;;;;4979781;28;20039;-66
2023/12/13 08:23:15;;;;;;;1.80;0.90;;;22.20;52.10;;;;;;4982136;28;20018;-67
2023/12/13 08:25:41;;;;;;;1.38;0.80;;;22.20;52.10;;;;;;4978977;28;20050;-66
2023/12/13 08:28:08;;;;;;;1.30;0.88;;;22.20;52.00;;;;;;4981436;28;20101;-66
2023/12/13 08:30:34;;;;;;;1.85;1.02;;;22.30;51.80;;;;;;4983645;28;20027;-65
2023/12/13 08:33:00;;;;;;;1.17;0.70;;;22.40;51.80;;;;;;4980919;28;20041;-66
2023/12/13 08:35:26;;;;;;;2.65;0.80;;;22.50;51.70;;;;;;4982794;28;20045;-66
2023/12/13 08:37:52;;;;;;;1.55;0.82;;;22.60;51.60;;;;;;4981118;28;20058;-66
2023/12/13 08:40:18;;;;;;;1.30;0.90;;;22.60;51.50;;;;;;4981216;28;20372;-67
2023/12/13 08:42:43;;;;;;;1.38;0.90;;;22.70;51.40;;;;;;4980839;28;20102;-67
2023/12/13 08:45:10;;;;;;;1.77;0.85;;;22.70;51.10;;;;;;4997017;28;20156;-67
2023/12/13 08:47:36;;;;;;;1.58;0.80;;;22.80;50.80;;;;;;4979652;28;20587;-67
2023/12/13 08:50:02;;;;;;;1.55;1.00;;;22.90;50.70;;;;;;4979491;28;20467;-67
2023/12/13 08:52:28;;;;;;;1.95;1.00;;;23.00;50.60;;;;;;4980636;28;20026;-67
2023/12/13 08:54:54;;;;;;;1.00;0.80;;;23.00;50.40;;;;;;4979101;28;20034;-66
2023/12/13 08:57:19;;;;;;;1.75;0.90;;;23.10;50.40;;;;;;4981675;28;20036;-67
2023/12/13 08:59:45;;;;;;;1.55;0.82;;;23.10;50.30;;;;;;4981096;28;20023;-68
2023/12/13 09:02:10;;;;;;;1.95;0.90;;;23.10;50.20;;;;;;4995620;28;20125;-67
2023/12/13 09:04:36;;;;;;;1.45;0.93;;;23.10;50.20;;;;;;4979230;28;20026;-67
2023/12/13 09:07:02;;;;;;;1.58;0.90;;;23.10;50.20;;;;;;4980036;28;20101;-67
2023/12/13 09:09:27;;;;;;;1.05;0.73;;;23.10;50.50;;;;;;4979369;28;20130;-66
2023/12/13 09:11:53;;;;;;;0.98;0.80;;;23.10;50.40;;;;;;4979611;28;20027;-66
2023/12/13 09:14:19;;;;;;;1.65;1.02;;;23.10;50.30;;;;;;4979245;28;20034;-67
2023/12/13 09:16:44;;;;;;;1.23;0.88;;;23.10;50.40;;;;;;4982402;28;20026;-67
2023/12/13 09:19:10;;;;;;;1.85;0.80;;;23.10;50.30;;;;;;4980020;28;20454;-67
2023/12/13 09:21:35;;;;;;;1.48;1.00;;;23.10;50.30;;;;;;4995990;28;20037;-67
2023/12/13 09:24:01;;;;;;;1.33;0.90;;;23.10;50.30;;;;;;4979571;28;20029;-67
2023/12/13 09:26:26;;;;;;;1.42;1.00;;;23.10;50.30;;;;;;4980988;28;20046;-67
2023/12/13 09:28:55;;;;;;;1.15;0.82;;;23.10;50.20;;;;;;4980167;28;20050;-66
2023/12/13 09:31:21;;;;;;;1.50;1.00;;;23.10;50.30;;;;;;4983621;28;20090;-67
2023/12/13 09:33:47;;;;;;;1.98;0.90;;;23.20;50.40;;;;;;4978588;28;20041;-67
2023/12/13 09:36:13;;;;;;;1.80;1.00;;;23.10;50.30;;;;;;4979138;28;20033;-67
2023/12/13 09:38:38;;;;;;;2.13;1.02;;;23.10;50.40;;;;;;4978734;28;20030;-67
2023/12/13 09:41:05;;;;;;;1.25;0.90;;;23.10;50.40;;;;;;4979860;28;20402;-66
2023/12/13 09:43:34;;;;;;;1.35;0.90;;;23.10;50.40;;;;;;4980080;28;20019;-67
2023/12/13 09:46:00;;;;;;;0.90;0.70;;;23.10;50.40;;;;;;4981090;28;20027;-67
2023/12/13 09:48:27;;;;;;;2.05;0.90;;;23.10;50.40;;;;;;4995105;28;20097;-67
2023/12/13 09:50:57;;;;;;;1.52;0.80;;;23.00;50.40;;;;;;4995551;28;20070;-68
2023/12/13 09:53:24;;;;;;;1.67;0.90;;;23.00;50.60;;;;;;4980878;28;20037;-67
2023/12/13 09:55:52;;;;;;;3.20;0.98;;;23.00;50.90;;;;;;4979462;28;20510;-68
2023/12/13 09:58:17;;;;;;;1.48;0.80;;;23.00;50.40;;;;;;4978915;28;20046;-68
2023/12/13 10:00:43;;;;;;;0.85;0.70;;;23.00;50.50;;;;;;4981902;28;20022;-68
2023/12/13 10:03:09;;;;;;;1.20;0.80;;;23.00;50.60;;;;;;4979559;28;20022;-68
2023/12/13 10:05:42;;;;;;;1.33;0.70;;;23.00;50.80;;;;;;4982209;28;20505;-68
2023/12/13 10:08:09;;;;;;;1.30;0.70;;;22.90;50.80;;;;;;4978573;28;20035;-68
2023/12/13 10:10:35;;;;;;;0.93;0.70;;;22.90;50.90;;;;;;4980233;28;20030;-69
2023/12/13 10:13:01;;;;;;;0.70;0.63;;;22.90;51.00;;;;;;4982878;28;20407;-69
2023/12/13 10:15:34;;;;;;;1.20;0.77;;;22.90;51.60;;;;;;4981774;28;20030;-69
2023/12/13 10:18:01;;;;;;;0.98;0.75;;;22.80;51.10;;;;;;4980966;28;20113;-68
2023/12/13 10:20:27;;;;;;;0.60;0.60;;;22.80;51.60;;;;;;4983049;28;20597;-69
2023/12/13 10:22:53;;;;;;;1.02;0.80;;;22.80;51.20;;;;;;4982631;28;20030;-68
2023/12/13 10:25:22;;;;;;;1.27;0.80;;;22.80;51.70;;;;;;4983853;28;20027;-70
2023/12/13 10:27:52;;;;;;;;;;;22.80;51.20;;;;;;4985395;28;20084;-70
2023/12/13 10:30:18;;;;;;;0.50;0.50;;;22.80;51.20;;;;;;4983325;28;20336;-69
2023/12/13 10:32:43;;;;;;;1.33;0.75;;;22.80;51.20;;;;;;4984110;28;20041;-69
2023/12/13 10:35:09;;;;;;;1.27;0.88;;;22.80;51.20;;;;;;4980370;28;20042;-69
2023/12/13 10:37:35;;;;;;;1.40;0.70;;;22.80;51.20;;;;;;4982148;28;20042;-68
2023/12/13 10:40:03;;;;;;;1.02;0.80;;;22.80;51.20;;;;;;4985963;28;20026;-68
2023/12/13 10:42:29;;;;;;;0.80;0.68;;;22.80;51.20;;;;;;4980587;28;20034;-68
2023/12/13 10:44:55;;;;;;;1.00;0.80;;;22.80;51.70;;;;;;4984858;28;20033;-68
2023/12/13 10:47:24;;;;;;;0.70;0.60;;;22.80;51.20;;;;;;4984104;28;20022;-68
2023/12/13 10:49:52;;;;;;;0.80;0.80;;;22.80;51.20;;;;;;4999417;28;20034;-68
2023/12/13 10:52:20;;;;;;;1.20;0.90;;;22.80;51.30;;;;;;4983790;28;20034;-68
2023/12/13 10:54:48;;;;;;;1.55;0.80;;;22.80;51.30;;;;;;4983171;28;20496;-69
2023/12/13 10:57:14;;;;;;;0.77;0.68;;;22.80;51.30;;;;;;4981512;28;20022;-69
2023/12/13 10:59:41;;;;;;;1.35;0.70;;;22.80;51.30;;;;;;4984167;28;20026;-69
2023/12/13 11:02:15;;;;;;;0.93;0.60;;;22.80;51.40;;;;;;4983069;28;20035;-68
2023/12/13 11:04:43;;;;;;;1.35;0.77;;;22.80;51.40;;;;;;4983452;28;20027;-68
2023/12/13 11:07:09;;;;;;;1.40;0.88;;;22.80;51.40;;;;;;4983103;28;20030;-65
2023/12/13 11:09:35;;;;;;;2.15;0.80;;;22.80;51.40;;;;;;4983058;28;20019;-66
2023/12/13 11:12:11;;;;;;;0.93;0.80;;;22.80;51.50;;;;;;4981522;28;20031;-67
2023/12/13 11:14:40;;;;;;;1.50;0.82;;;22.90;51.60;;;;;;4982399;28;20061;-67
2023/12/13 11:17:06;;;;;;;2.17;0.85;;;22.90;52.10;;;;;;4981878;28;20493;-66
2023/12/13 11:19:32;;;;;;;1.08;0.80;;;22.90;51.80;;;;;;4981240;28;20058;-66
2023/12/13 11:21:58;;;;;;;0.80;0.70;;;22.90;51.70;;;;;;4980182;28;20041;-66
2023/12/13 11:24:26;;;;;;;1.50;0.80;;;22.90;51.90;;;;;;4981846;28;20124;-66
2023/12/13 11:26:54;;;;;;;1.13;0.80;;;22.90;51.80;;;;;;4983266;28;20026;-67
2023/12/13 11:29:27;;;;;;;1.02;0.80;;;22.90;52.10;;;;;;4980912;28;20026;-67
2023/12/13 11:31:56;;;;;;;3.40;0.90;;;22.90;52.20;;;;;;4981840;28;20062;-66
2023/12/13 11:34:48;;;;;;;1.70;1.00;;;22.90;52.00;;;;;;4996531;28;20038;-66
2023/12/13 11:37:14;;;;;;;1.77;0.90;;;22.90;51.70;;;;;;4982071;28;20039;-67
2023/12/13 11:39:41;;;;;;;1.63;0.93;;;22.90;51.70;;;;;;4981673;28;20026;-67
2023/12/13 11:42:09;;;;;;;1.08;0.70;;;22.90;52.20;;;;;;4982884;28;20364;-66
2023/12/13 11:44:36;;;;;;;1.30;0.80;;;22.90;51.90;;;;;;4980379;28;20483;-66
2023/12/13 11:47:06;;;;;;;2.58;0.80;;;22.90;51.80;;;;;;4998642;28;20076;-65
2023/12/13 11:49:32;;;;;;;1.30;0.90;;;22.90;51.70;;;;;;4983003;28;20026;-66
2023/12/13 11:52:00;;;;;;;1.35;0.90;;;22.90;51.70;;;;;;4982329;28;20037;-66
2023/12/13 11:54:25;;;;;;;1.00;0.70;;;22.90;51.80;;;;;;4982893;28;20488;-66
2023/12/13 11:56:51;;;;;;;2.08;0.80;;;22.90;52.00;;;;;;4982251;28;20030;-66
2023/12/13 11:59:20;;;;;;;1.45;0.90;;;22.90;51.80;;;;;;4981864;28;20039;-66
2023/12/13 12:01:46;;;;;;;1.20;0.80;;;22.90;51.90;;;;;;4982027;28;20054;-66
2023/12/13 12:04:13;;;;;;;2.00;1.10;;;22.90;52.10;;;;;;4996057;28;20080;-66
2023/12/13 12:06:48;;;;;;;1.55;0.90;;;23.00;51.50;;;;;;4980095;28;20022;-66
2023/12/13 12:09:15;;;;;;;1.80;1.00;;;23.00;51.10;;;;;;4980046;28;20043;-67
2023/12/13 12:11:40;;;;;;;2.60;1.00;;;23.00;51.20;;;;;;4982487;28;20043;-66
2023/12/13 12:14:09;;;;;;;1.55;1.10;;;23.00;50.70;;;;;;4981006;28;20034;-66
2023/12/13 12:16:36;;;;;;;2.67;1.17;;;23.00;50.60;;;;;;4984187;28;20038;-68
2023/12/13 12:19:04;;;;;;;2.03;1.20;;;23.00;50.60;;;;;;4979400;28;20494;-68
2023/12/13 12:21:32;;;;;;;1.20;0.90;;;23.00;50.60;;;;;;4980661;28;20522;-69
2023/12/13 12:24:01;;;;;;;2.33;1.08;;;23.00;50.50;;;;;;4979192;28;20026;-69
2023/12/13 12:26:26;;;;;;;1.13;0.88;;;23.00;50.50;;;;;;4982146;28;20490;-69
2023/12/13 12:28:52;;;;;;;1.92;1.00;;;22.90;50.50;;;;;;4981777;28;20038;-69
2023/12/13 12:31:18;;;;;;;1.67;1.00;;;22.90;50.50;;;;;;4981370;28;20511;-68
2023/12/13 12:33:55;;;;;;;1.63;1.00;;;22.90;50.60;;;;;;4997237;28;20394;-67
2023/12/13 12:36:21;;;;;;;2.00;1.20;;;22.90;50.60;;;;;;4981895;28;20022;-68
2023/12/13 12:38:47;;;;;;;2.35;1.30;;;22.90;51.10;;;;;;4980692;28;20110;-68
2023/12/13 12:41:14;;;;;;;2.33;1.30;;;22.90;51.20;;;;;;4982456;28;20181;-68
2023/12/13 12:43:39;;;;;;;2.28;1.00;;;22.80;50.60;;;;;;4980320;28;20022;-67